Time;durP1;ratioP1;P1;durP2;ratioP2;P2;SDS_P1;SDS_P2;PMS_P1;PMS_P2;Temp;Humidity;BMP_temperature;BMP_pressure;BME280_temperature;BME280_humidity;BME280_pressure;Samples;Min_cycle;Max_cycle;Signal;HPM_P1;HPM_P2
2021/08/05 00:00:34;;;;;;;4.78;1.92;;;22.90;99.90;;;;;;5030416;28;20037;-66
2021/08/05 00:03:00;;;;;;;2.47;2.03;;;22.80;99.90;;;;;;5030905;28;20449;-66
2021/08/05 00:05:26;;;;;;;2.40;1.83;;;22.80;99.90;;;;;;5031604;28;20467;-66
2021/08/05 00:07:51;;;;;;;2.95;1.83;;;22.80;99.90;;;;;;5031167;28;20465;-67
2021/08/05 00:10:17;;;;;;;2.65;2.03;;;22.90;99.90;;;;;;5031751;28;20029;-67
2021/08/05 00:12:42;;;;;;;4.60;2.10;;;22.80;99.90;;;;;;5034241;28;20064;-67
2021/08/05 00:15:08;;;;;;;3.40;1.80;;;22.80;99.90;;;;;;5034331;28;20076;-66
2021/08/05 00:17:34;;;;;;;2.08;1.67;;;22.80;99.90;;;;;;5034247;28;20507;-67
2021/08/05 00:20:00;;;;;;;2.10;1.58;;;22.80;99.90;;;;;;5032859;28;20096;-67
2021/08/05 00:22:25;;;;;;;2.58;1.83;;;22.80;99.90;;;;;;5015283;28;20034;-69
2021/08/05 00:24:51;;;;;;;3.47;2.00;;;22.80;99.90;;;;;;5014620;28;20110;-68
2021/08/05 00:27:16;;;;;;;3.15;1.88;;;22.80;99.90;;;;;;5032669;28;20041;-69
2021/08/05 00:29:42;;;;;;;2.10;1.67;;;22.80;99.90;;;;;;5016294;28;20030;-69
2021/08/05 00:32:08;;;;;;;2.75;1.95;;;22.80;99.90;;;;;;5033688;28;20029;-67
2021/08/05 00:34:33;;;;;;;2.78;1.80;;;22.70;99.90;;;;;;5034442;28;20096;-68
2021/08/05 00:36:59;;;;;;;4.53;2.28;;;22.80;99.90;;;;;;5034135;28;20030;-68
2021/08/05 00:39:24;;;;;;;2.15;1.80;;;22.70;99.90;;;;;;5034754;28;20040;-67
2021/08/05 00:41:50;;;;;;;3.45;1.92;;;22.70;99.90;;;;;;5033534;28;20076;-67
2021/08/05 00:44:16;;;;;;;2.35;1.80;;;22.70;99.90;;;;;;5034339;28;20026;-68
2021/08/05 00:46:41;;;;;;;2.45;2.00;;;22.70;99.90;;;;;;5033281;28;20428;-68
2021/08/05 00:49:07;;;;;;;3.58;1.75;;;22.70;99.90;;;;;;5033632;28;20113;-67
2021/08/05 00:51:33;;;;;;;2.55;1.90;;;22.70;99.90;;;;;;5033805;28;20056;-68
2021/08/05 00:53:58;;;;;;;3.22;1.80;;;22.70;99.90;;;;;;5034103;28;20038;-68
2021/08/05 00:56:25;;;;;;;2.65;1.73;;;22.70;99.90;;;;;;5034159;28;20079;-68
2021/08/05 00:58:50;;;;;;;1.70;1.42;;;22.70;99.90;;;;;;5033424;28;20036;-68
2021/08/05 01:01:19;;;;;;;2.10;1.70;;;22.70;99.90;;;;;;5033525;28;20033;-65
2021/08/05 01:03:50;;;;;;;1.85;1.70;;;22.70;99.90;;;;;;5033333;28;20539;-68
2021/08/05 01:06:36;;;;;;;2.90;1.75;;;22.70;99.90;;;;;;5033617;28;20821;-67
2021/08/05 01:09:10;;;;;;;2.03;1.83;;;22.70;99.90;;;;;;5033633;28;20397;-68
2021/08/05 01:11:43;;;;;;;2.38;1.80;;;22.60;99.90;;;;;;5033601;28;20026;-68
2021/08/05 01:14:13;;;;;;;2.13;1.70;;;22.70;99.90;;;;;;5033574;28;20067;-66
2021/08/05 01:16:44;;;;;;;1.80;1.63;;;22.60;99.90;;;;;;5032890;28;20060;-68
2021/08/05 01:19:34;;;;;;;1.80;1.65;;;22.60;99.90;;;;;;5015554;28;20391;-67
2021/08/05 01:22:04;;;;;;;2.10;1.80;;;22.60;99.90;;;;;;5015162;28;20575;-66
2021/08/05 01:24:34;;;;;;;4.85;1.90;;;22.60;99.90;;;;;;5013752;28;20022;-69
2021/08/05 01:27:01;;;;;;;3.47;1.60;;;22.60;99.90;;;;;;5013635;28;20038;-67
2021/08/05 01:29:31;;;;;;;5.15;1.77;;;22.60;99.90;;;;;;5021013;28;20021;-68
2021/08/05 01:31:57;;;;;;;2.28;1.90;;;22.60;99.90;;;;;;5033537;28;20029;-68
2021/08/05 01:34:24;;;;;;;2.22;1.90;;;22.60;99.90;;;;;;5033051;28;20033;-68
2021/08/05 01:36:51;;;;;;;2.33;1.80;;;22.60;99.90;;;;;;5015248;28;20026;-69
2021/08/05 01:39:17;;;;;;;3.70;1.95;;;22.60;99.90;;;;;;5015353;28;20033;-69
2021/08/05 01:41:45;;;;;;;2.78;1.60;;;22.60;99.90;;;;;;5032481;28;20025;-69
2021/08/05 01:44:12;;;;;;;2.53;1.80;;;22.60;99.90;;;;;;5032958;28;20473;-68
2021/08/05 01:46:39;;;;;;;3.38;2.00;;;22.60;99.90;;;;;;5031780;28;20021;-69
2021/08/05 01:49:05;;;;;;;3.17;1.65;;;22.50;99.90;;;;;;5032657;28;20393;-69
2021/08/05 01:51:32;;;;;;;2.90;2.00;;;22.60;99.90;;;;;;5019344;28;20049;-66
2021/08/05 01:53:58;;;;;;;2.95;1.80;;;22.60;99.90;;;;;;5021926;28;20029;-67
2021/08/05 01:56:25;;;;;;;1.80;1.52;;;22.60;99.90;;;;;;5033271;28;20021;-69
2021/08/05 01:58:51;;;;;;;1.90;1.70;;;22.60;99.90;;;;;;5032336;28;20037;-69
2021/08/05 02:01:20;;;;;;;2.75;1.63;;;22.50;99.90;;;;;;5032683;28;20631;-67
2021/08/05 02:03:50;;;;;;;1.90;1.70;;;22.60;99.90;;;;;;5032311;28;20386;-67
2021/08/05 02:06:21;;;;;;;2.35;1.73;;;22.50;99.90;;;;;;5032422;28;20026;-67
2021/08/05 02:08:58;;;;;;;2.17;1.95;;;22.50;99.90;;;;;;5032597;28;20021;-67
2021/08/05 02:11:28;;;;;;;2.13;1.75;;;22.50;99.90;;;;;;5032919;28;20378;-66
2021/08/05 02:13:56;;;;;;;2.00;1.80;;;22.50;99.90;;;;;;5032821;28;20029;-67
2021/08/05 02:16:25;;;;;;;3.45;1.70;;;22.50;99.90;;;;;;5032215;28;20470;-66
2021/08/05 02:18:52;;;;;;;2.72;1.55;;;22.50;99.90;;;;;;5026260;28;20033;-67
2021/08/05 02:21:22;;;;;;;1.80;1.55;;;22.50;99.90;;;;;;5020992;28;20021;-67
2021/08/05 02:23:50;;;;;;;3.35;2.13;;;22.50;99.90;;;;;;5012382;28;20029;-67
2021/08/05 02:26:16;;;;;;;3.45;1.85;;;22.50;99.90;;;;;;5012612;28;20022;-67
2021/08/05 02:28:42;;;;;;;1.77;1.50;;;22.50;99.90;;;;;;5021292;28;20120;-66
2021/08/05 02:31:08;;;;;;;3.60;1.70;;;22.50;99.90;;;;;;5032163;28;20108;-67
2021/08/05 02:33:35;;;;;;;6.10;1.83;;;22.50;99.90;;;;;;5031717;28;20041;-68
2021/08/05 02:36:01;;;;;;;2.30;1.80;;;22.50;99.90;;;;;;5031875;28;20021;-68
2021/08/05 02:38:27;;;;;;;3.85;1.88;;;22.50;99.90;;;;;;5031845;28;20469;-66
2021/08/05 02:40:54;;;;;;;3.35;1.98;;;22.50;99.90;;;;;;5032155;28;20029;-68
2021/08/05 02:43:24;;;;;;;2.28;1.77;;;22.50;99.90;;;;;;5031985;28;20033;-67
2021/08/05 02:45:50;;;;;;;4.25;1.70;;;22.50;99.90;;;;;;5031824;28;20021;-67
2021/08/05 02:48:17;;;;;;;2.13;1.63;;;22.50;99.90;;;;;;5030915;28;20480;-66
2021/08/05 02:50:43;;;;;;;2.38;1.75;;;22.40;99.90;;;;;;5031579;28;20025;-67
2021/08/05 02:53:10;;;;;;;3.55;2.00;;;22.40;99.90;;;;;;5031851;28;20037;-67
2021/08/05 02:55:36;;;;;;;2.83;2.00;;;22.40;99.90;;;;;;5031357;28;20033;-68
2021/08/05 02:58:03;;;;;;;2.30;1.92;;;22.40;99.90;;;;;;5031739;28;20057;-68
2021/08/05 03:00:29;;;;;;;2.92;1.70;;;22.40;99.90;;;;;;5031447;28;20024;-67
2021/08/05 03:02:55;;;;;;;1.77;1.67;;;22.40;99.90;;;;;;5031938;28;20053;-68
2021/08/05 03:05:21;;;;;;;1.90;1.70;;;22.40;99.90;;;;;;5013821;28;20057;-67
2021/08/05 03:07:46;;;;;;;1.90;1.60;;;22.40;99.90;;;;;;5031167;28;20075;-68
2021/08/05 03:10:14;;;;;;;4.78;2.00;;;22.40;99.90;;;;;;5031481;28;20028;-67
2021/08/05 03:12:40;;;;;;;5.93;1.90;;;22.40;99.90;;;;;;5031088;28;20121;-68
2021/08/05 03:15:07;;;;;;;2.63;1.80;;;22.40;99.90;;;;;;5031346;28;20112;-68
2021/08/05 03:17:33;;;;;;;2.88;1.92;;;22.40;99.90;;;;;;5030877;28;20025;-68
2021/08/05 03:19:59;;;;;;;3.35;1.95;;;22.40;99.90;;;;;;5030531;28;20036;-68
2021/08/05 03:22:25;;;;;;;4.00;1.83;;;22.40;99.90;;;;;;5012151;28;20423;-68
2021/08/05 03:24:50;;;;;;;3.72;1.65;;;22.40;99.90;;;;;;5029859;28;20038;-67
2021/08/05 03:27:16;;;;;;;1.95;1.70;;;22.40;99.90;;;;;;5031235;28;20033;-66
2021/08/05 03:29:41;;;;;;;3.40;1.75;;;22.40;99.90;;;;;;5031235;28;20116;-66
2021/08/05 03:32:07;;;;;;;2.47;1.80;;;22.40;99.90;;;;;;5031382;28;20026;-68
2021/08/05 03:34:33;;;;;;;1.85;1.67;;;22.40;99.90;;;;;;5031123;28;20042;-69
2021/08/05 03:36:59;;;;;;;2.40;1.80;;;22.40;99.90;;;;;;5031278;28;20414;-66
2021/08/05 03:39:24;;;;;;;3.70;1.70;;;22.30;99.90;;;;;;5031177;28;20087;-67
2021/08/05 03:41:50;;;;;;;2.65;1.90;;;22.40;99.90;;;;;;5031038;28;20057;-68
2021/08/05 03:44:16;;;;;;;6.95;1.80;;;22.30;99.90;;;;;;5031036;28;20381;-66
2021/08/05 03:46:42;;;;;;;4.03;1.63;;;22.40;99.90;;;;;;5034254;28;20029;-68
2021/08/05 03:49:08;;;;;;;3.60;1.67;;;22.40;99.90;;;;;;5034847;28;20033;-68
2021/08/05 03:51:34;;;;;;;6.13;1.90;;;22.40;99.90;;;;;;5034845;28;20063;-68
2021/08/05 03:53:59;;;;;;;3.75;1.95;;;22.30;99.90;;;;;;5035184;28;20041;-68
2021/08/05 03:56:25;;;;;;;4.25;1.80;;;22.30;99.90;;;;;;5035527;28;20105;-68
2021/08/05 03:58:50;;;;;;;3.47;1.75;;;22.30;99.90;;;;;;5035029;28;20030;-69
2021/08/05 04:01:16;;;;;;;3.30;1.75;;;22.30;99.90;;;;;;5034956;28;20037;-65
2021/08/05 04:03:42;;;;;;;2.47;1.83;;;22.30;99.90;;;;;;5034495;28;20047;-65
2021/08/05 04:06:08;;;;;;;5.25;1.77;;;22.30;99.90;;;;;;5035057;28;20050;-67
2021/08/05 04:08:34;;;;;;;3.80;1.90;;;22.30;99.90;;;;;;5034951;28;20029;-66
2021/08/05 04:11:00;;;;;;;2.65;1.42;;;22.30;99.90;;;;;;5035001;28;20465;-67
2021/08/05 04:13:26;;;;;;;2.85;1.60;;;22.30;99.90;;;;;;5034924;28;20095;-65
2021/08/05 04:15:52;;;;;;;3.05;1.80;;;22.30;99.90;;;;;;5017091;28;20458;-67
2021/08/05 04:18:18;;;;;;;4.72;1.77;;;22.30;99.90;;;;;;5016350;28;20460;-68
2021/08/05 04:20:44;;;;;;;4.05;1.80;;;22.30;99.90;;;;;;5034486;28;20026;-69
2021/08/05 04:23:09;;;;;;;2.65;1.60;;;22.20;99.90;;;;;;5034773;28;20017;-68
2021/08/05 04:25:36;;;;;;;2.60;1.80;;;22.30;99.90;;;;;;5034208;28;20034;-68
2021/08/05 04:28:01;;;;;;;3.10;1.60;;;22.30;99.90;;;;;;5034691;28;20022;-69
2021/08/05 04:30:27;;;;;;;2.70;1.65;;;22.20;99.90;;;;;;5034132;28;20032;-65
2021/08/05 04:32:53;;;;;;;4.65;2.10;;;22.20;99.90;;;;;;5034427;28;20033;-67
2021/08/05 04:35:19;;;;;;;2.13;1.50;;;22.20;99.90;;;;;;5034469;28;20109;-66
2021/08/05 04:37:54;;;;;;;2.50;1.80;;;22.20;99.90;;;;;;5034266;28;20025;-67
2021/08/05 04:40:21;;;;;;;6.00;1.85;;;22.20;99.90;;;;;;5034467;28;20021;-67
2021/08/05 04:42:46;;;;;;;3.47;1.80;;;22.30;99.90;;;;;;5033575;28;20426;-66
2021/08/05 04:45:13;;;;;;;3.75;1.60;;;22.20;99.90;;;;;;5034248;28;20029;-69
2021/08/05 04:48:03;;;;;;;2.70;1.80;;;22.30;99.90;;;;;;5034085;28;20026;-68
2021/08/05 04:50:41;;;;;;;2.75;1.60;;;22.30;99.90;;;;;;5014165;28;20061;-68
2021/08/05 04:53:07;;;;;;;3.42;1.70;;;22.30;99.90;;;;;;5015052;28;20081;-68
2021/08/05 04:55:33;;;;;;;4.38;1.80;;;22.30;99.90;;;;;;5033935;28;20113;-67
2021/08/05 04:58:02;;;;;;;6.47;1.98;;;22.40;99.90;;;;;;5032224;28;20021;-68
2021/08/05 05:00:30;;;;;;;3.35;1.50;;;22.50;99.90;;;;;;5019343;28;20473;-68
2021/08/05 05:02:56;;;;;;;3.47;2.00;;;22.70;99.90;;;;;;5034563;28;20037;-68
2021/08/05 05:05:23;;;;;;;4.28;1.63;;;22.90;99.90;;;;;;5033995;28;20033;-67
2021/08/05 05:07:49;;;;;;;5.65;1.60;;;23.00;99.90;;;;;;5033603;28;20037;-68
2021/08/05 05:10:16;;;;;;;2.60;1.60;;;23.00;99.90;;;;;;5033140;28;20521;-69
2021/08/05 05:12:42;;;;;;;3.33;2.00;;;23.00;99.90;;;;;;5013934;28;20071;-69
2021/08/05 05:15:09;;;;;;;2.53;1.80;;;23.00;99.90;;;;;;5014092;28;20541;-69
2021/08/05 05:17:36;;;;;;;2.60;1.50;;;22.90;99.90;;;;;;5013617;28;20030;-68
2021/08/05 05:20:05;;;;;;;4.38;1.60;;;23.00;99.90;;;;;;5028363;28;20478;-68
2021/08/05 05:22:30;;;;;;;3.45;1.40;;;23.00;99.90;;;;;;5033307;28;20033;-68
2021/08/05 05:24:57;;;;;;;3.88;1.80;;;23.10;99.90;;;;;;5033709;28;20018;-68
2021/08/05 05:27:23;;;;;;;3.40;1.85;;;23.20;99.90;;;;;;5033962;28;20025;-68
2021/08/05 05:29:49;;;;;;;3.10;1.55;;;23.20;99.90;;;;;;5033051;28;20100;-68
2021/08/05 05:32:15;;;;;;;5.00;1.70;;;23.20;99.90;;;;;;5033026;28;20587;-67
2021/08/05 05:34:40;;;;;;;7.05;1.90;;;23.20;99.90;;;;;;5032963;28;20057;-69
2021/08/05 05:37:06;;;;;;;5.63;1.77;;;23.20;99.90;;;;;;5032892;28;20052;-69
2021/08/05 05:39:32;;;;;;;3.78;1.42;;;23.20;99.90;;;;;;5032883;28;20492;-66
2021/08/05 05:41:57;;;;;;;3.10;1.67;;;23.20;99.90;;;;;;5033028;28;20026;-68
2021/08/05 05:44:23;;;;;;;5.82;1.70;;;23.30;99.90;;;;;;5018332;28;20500;-67
2021/08/05 05:46:49;;;;;;;3.83;1.92;;;23.30;99.90;;;;;;5013227;28;20122;-68
2021/08/05 05:49:15;;;;;;;2.28;1.55;;;23.40;99.90;;;;;;5013316;28;20056;-67
2021/08/05 05:51:41;;;;;;;5.32;1.70;;;23.50;99.90;;;;;;5022199;28;20033;-66
2021/08/05 05:54:06;;;;;;;4.55;1.52;;;23.50;99.90;;;;;;5032776;28;20036;-67
2021/08/05 05:56:33;;;;;;;2.58;1.25;;;23.50;99.90;;;;;;5032747;28;20374;-67
2021/08/05 05:58:58;;;;;;;3.38;1.45;;;23.60;99.90;;;;;;5032572;28;20029;-68
2021/08/05 06:01:24;;;;;;;4.45;1.52;;;23.60;99.90;;;;;;5032465;28;20036;-68
2021/08/05 06:03:50;;;;;;;4.32;2.05;;;23.50;99.90;;;;;;5032499;28;20029;-68
2021/08/05 06:06:15;;;;;;;2.90;1.33;;;23.60;99.90;;;;;;5032856;28;20033;-68
2021/08/05 06:08:41;;;;;;;2.90;1.50;;;23.60;99.90;;;;;;5032137;28;20109;-70
2021/08/05 06:11:06;;;;;;;2.10;1.50;;;23.70;99.90;;;;;;5031958;28;20155;-67
2021/08/05 06:13:32;;;;;;;2.90;1.42;;;23.70;99.90;;;;;;5032236;28;20482;-67
2021/08/05 06:15:58;;;;;;;1.80;1.50;;;23.70;99.90;;;;;;5032676;28;20022;-67
2021/08/05 06:18:23;;;;;;;2.00;1.40;;;23.70;99.90;;;;;;5032471;28;20030;-69
2021/08/05 06:20:49;;;;;;;4.32;1.90;;;23.80;99.90;;;;;;5032333;28;20466;-69
2021/08/05 06:23:14;;;;;;;3.08;1.55;;;23.70;99.90;;;;;;5032486;28;20025;-69
2021/08/05 06:25:40;;;;;;;3.22;1.40;;;23.80;99.90;;;;;;5032172;28;20112;-68
2021/08/05 06:28:06;;;;;;;3.88;1.58;;;23.80;99.90;;;;;;5032047;28;20033;-68
2021/08/05 06:30:31;;;;;;;4.60;1.50;;;23.90;99.90;;;;;;5031969;28;20096;-70
2021/08/05 06:32:58;;;;;;;1.80;1.38;;;23.90;99.90;;;;;;5032242;28;20029;-69
2021/08/05 06:35:24;;;;;;;2.38;1.40;;;23.90;99.90;;;;;;5032400;28;20100;-69
2021/08/05 06:37:50;;;;;;;4.47;1.30;;;23.90;99.90;;;;;;5032158;28;20021;-68
2021/08/05 06:40:16;;;;;;;4.22;1.40;;;24.00;99.90;;;;;;5031576;28;20048;-68
2021/08/05 06:42:42;;;;;;;2.42;1.63;;;24.10;99.90;;;;;;5026561;28;20026;-68
2021/08/05 06:45:10;;;;;;;3.58;1.50;;;24.00;99.90;;;;;;5024334;28;20022;-66
2021/08/05 06:47:41;;;;;;;3.83;1.70;;;24.00;99.90;;;;;;5031410;28;20516;-65
2021/08/05 06:50:08;;;;;;;4.93;1.50;;;24.00;99.90;;;;;;5031412;28;20046;-67
2021/08/05 06:52:34;;;;;;;3.97;1.58;;;24.00;99.90;;;;;;5031287;28;20485;-67
2021/08/05 06:55:00;;;;;;;1.60;1.50;;;24.00;99.90;;;;;;5031143;28;20079;-68
2021/08/05 06:57:26;;;;;;;3.60;1.75;;;23.90;99.90;;;;;;5012270;28;20026;-66
2021/08/05 06:59:51;;;;;;;4.43;1.48;;;24.00;99.90;;;;;;5018042;28;20018;-66
2021/08/05 07:02:17;;;;;;;4.53;1.70;;;24.00;99.90;;;;;;5025450;28;20079;-68
2021/08/05 07:04:42;;;;;;;5.97;1.60;;;24.00;99.90;;;;;;5011861;28;20374;-72
2021/08/05 07:07:08;;;;;;;1.95;1.58;;;24.10;99.90;;;;;;5011967;28;20068;-73
2021/08/05 07:09:34;;;;;;;3.33;2.13;;;23.90;99.90;;;;;;5029374;28;20106;-66
2021/08/05 07:11:59;;;;;;;4.13;3.20;;;23.90;99.90;;;;;;5020337;28;20486;-67
2021/08/05 07:14:25;;;;;;;4.43;3.78;;;24.00;99.90;;;;;;5012146;28;20180;-69
2021/08/05 07:16:51;;;;;;;6.65;4.90;;;23.90;99.90;;;;;;5029349;28;20024;-68
2021/08/05 07:19:16;;;;;;;7.65;4.60;;;23.90;99.90;;;;;;5031306;28;20381;-71
2021/08/05 07:21:42;;;;;;;8.98;5.95;;;23.90;99.90;;;;;;5030960;28;20076;-67
2021/08/05 07:24:08;;;;;;;6.32;5.38;;;24.10;99.90;;;;;;5031529;28;20029;-67
2021/08/05 07:26:34;;;;;;;9.30;7.35;;;24.10;99.90;;;;;;5031423;28;20098;-67
2021/08/05 07:28:59;;;;;;;8.68;7.82;;;24.10;99.90;;;;;;5013877;28;20498;-68
2021/08/05 07:31:25;;;;;;;8.60;7.30;;;23.90;99.90;;;;;;5012199;28;20028;-69
2021/08/05 07:33:52;;;;;;;9.80;7.40;;;24.00;99.90;;;;;;5011582;28;20041;-67
2021/08/05 07:36:18;;;;;;;9.30;7.82;;;24.00;99.90;;;;;;5011800;28;20030;-68
2021/08/05 07:38:44;;;;;;;8.38;7.57;;;23.90;99.90;;;;;;5013938;28;20545;-70
2021/08/05 07:41:10;;;;;;;7.82;7.05;;;23.90;99.90;;;;;;5015154;28;20034;-66
2021/08/05 07:43:35;;;;;;;13.60;7.50;;;24.00;99.90;;;;;;5020159;28;20445;-66
2021/08/05 07:46:01;;;;;;;9.50;8.27;;;24.10;99.90;;;;;;5013779;28;20104;-66
2021/08/05 07:48:27;;;;;;;9.25;8.07;;;23.90;99.90;;;;;;5012646;28;20029;-66
2021/08/05 07:50:53;;;;;;;9.55;8.38;;;23.90;99.90;;;;;;5011813;28;20022;-66
2021/08/05 07:53:18;;;;;;;9.88;8.52;;;23.80;99.90;;;;;;5019860;28;20439;-65
2021/08/05 07:55:44;;;;;;;10.13;8.35;;;23.80;99.90;;;;;;5011177;28;20479;-66
2021/08/05 07:58:10;;;;;;;10.80;9.55;;;23.70;99.90;;;;;;5018779;28;20037;-66
2021/08/05 08:00:37;;;;;;;9.65;8.57;;;23.70;99.90;;;;;;5030578;28;20045;-66
2021/08/05 08:03:03;;;;;;;10.15;8.70;;;23.70;99.90;;;;;;5031047;28;20432;-66
2021/08/05 08:05:30;;;;;;;10.43;8.90;;;23.70;99.90;;;;;;5030947;28;20079;-66
2021/08/05 08:07:55;;;;;;;11.13;8.55;;;23.60;99.90;;;;;;5031365;28;20068;-66
2021/08/05 08:10:21;;;;;;;11.55;8.50;;;23.70;99.90;;;;;;5029090;28;20461;-66
2021/08/05 08:12:47;;;;;;;13.65;7.72;;;23.90;99.90;;;;;;5020705;28;20041;-66
2021/08/05 08:15:13;;;;;;;9.90;8.05;;;23.90;99.90;;;;;;5020216;28;20034;-66
2021/08/05 08:17:38;;;;;;;14.10;8.68;;;23.90;99.90;;;;;;5031059;28;20521;-66
2021/08/05 08:20:09;;;;;;;8.93;8.02;;;23.90;99.90;;;;;;5029118;28;20025;-67
2021/08/05 08:22:35;;;;;;;11.90;7.80;;;23.90;99.90;;;;;;5029991;28;20516;-70
2021/08/05 08:25:00;;;;;;;11.82;7.68;;;23.90;99.90;;;;;;5029601;28;20038;-69
2021/08/05 08:27:26;;;;;;;11.50;7.30;;;23.80;99.90;;;;;;5025023;28;20051;-69
2021/08/05 08:29:52;;;;;;;12.02;7.68;;;23.90;99.90;;;;;;5024230;28;20075;-69
2021/08/05 08:32:18;;;;;;;10.00;7.78;;;23.90;99.90;;;;;;5033378;28;20022;-69
2021/08/05 08:34:44;;;;;;;10.43;7.65;;;24.00;99.90;;;;;;5020053;28;20042;-70
2021/08/05 08:37:09;;;;;;;9.15;7.15;;;24.10;99.90;;;;;;5014923;28;20080;-70
2021/08/05 08:39:35;;;;;;;8.88;7.63;;;23.90;99.90;;;;;;5015556;28;20037;-69
2021/08/05 08:42:01;;;;;;;17.27;8.07;;;23.90;99.90;;;;;;5019847;28;20026;-69
2021/08/05 08:44:27;;;;;;;8.18;7.00;;;24.00;99.90;;;;;;5014494;28;20030;-69
2021/08/05 08:46:53;;;;;;;9.27;7.00;;;24.10;99.90;;;;;;5020136;28;20025;-68
2021/08/05 08:49:26;;;;;;;7.90;6.68;;;24.10;99.90;;;;;;5034145;28;20068;-69
2021/08/05 08:51:54;;;;;;;8.83;7.40;;;24.10;99.90;;;;;;5033702;28;20025;-69
2021/08/05 08:54:21;;;;;;;8.57;6.95;;;24.10;99.90;;;;;;5032359;28;20044;-70
2021/08/05 08:56:48;;;;;;;9.05;7.40;;;24.00;99.90;;;;;;5032190;28;20033;-69
2021/08/05 08:59:17;;;;;;;9.60;6.97;;;24.00;99.90;;;;;;5022737;28;20412;-69
2021/08/05 09:01:43;;;;;;;8.02;7.22;;;24.10;99.90;;;;;;5033749;28;20014;-69
2021/08/05 09:04:09;;;;;;;6.90;6.10;;;24.10;99.90;;;;;;5033932;28;20036;-69
2021/08/05 09:06:35;;;;;;;7.93;5.82;;;24.10;99.90;;;;;;5031951;28;20022;-69
2021/08/05 09:09:04;;;;;;;6.78;6.07;;;24.20;99.90;;;;;;5031728;28;20104;-69
2021/08/05 09:11:30;;;;;;;8.30;5.97;;;24.20;99.90;;;;;;5033587;28;20079;-69
2021/08/05 09:13:55;;;;;;;6.80;6.20;;;24.20;99.90;;;;;;5014645;28;20518;-69
2021/08/05 09:16:32;;;;;;;8.32;6.38;;;24.20;99.90;;;;;;5026202;28;20029;-69
2021/08/05 09:19:38;;;;;;;7.63;6.03;;;24.20;99.90;;;;;;5031093;28;20021;-69
2021/08/05 09:22:04;;;;;;;7.32;6.38;;;24.20;99.90;;;;;;5023669;28;20014;-69
2021/08/05 09:24:30;;;;;;;7.55;5.55;;;24.20;99.90;;;;;;5028236;28;20497;-69
2021/08/05 09:26:59;;;;;;;7.40;6.15;;;24.20;99.90;;;;;;5033769;28;20037;-69
2021/08/05 09:29:25;;;;;;;7.00;5.72;;;24.10;99.90;;;;;;5031991;28;20382;-69
2021/08/05 09:31:50;;;;;;;8.63;6.68;;;24.10;99.90;;;;;;5028869;28;20099;-70
2021/08/05 09:34:45;;;;;;;7.90;6.53;;;24.00;99.90;;;;;;5021432;28;20749;-70
2021/08/05 09:37:14;;;;;;;6.88;6.03;;;24.10;99.90;;;;;;5010885;28;20034;-70
2021/08/05 09:39:41;;;;;;;8.23;6.55;;;24.20;99.90;;;;;;5013829;28;20057;-70
2021/08/05 09:42:17;;;;;;;7.28;5.82;;;24.20;99.90;;;;;;5016682;28;20034;-70
2021/08/05 09:44:45;;;;;;;6.57;5.80;;;24.20;99.90;;;;;;5013018;28;20018;-70
2021/08/05 09:47:15;;;;;;;7.72;6.07;;;24.30;99.90;;;;;;5014369;28;20030;-69
2021/08/05 09:49:52;;;;;;;7.57;5.82;;;24.20;99.90;;;;;;5012983;28;20108;-70
2021/08/05 09:52:32;;;;;;;7.97;5.68;;;24.20;99.90;;;;;;5013407;28;20026;-70
2021/08/05 09:55:05;;;;;;;6.53;5.30;;;24.20;99.90;;;;;;5014775;28;20038;-69
2021/08/05 09:57:38;;;;;;;6.60;4.90;;;24.20;99.90;;;;;;5032745;28;20484;-70
2021/08/05 10:00:03;;;;;;;5.85;4.72;;;24.20;99.90;;;;;;5031283;28;20037;-71
2021/08/05 10:02:42;;;;;;;5.57;4.35;;;24.20;99.90;;;;;;5023046;28;20026;-69
2021/08/05 10:05:25;;;;;;;5.80;4.78;;;24.10;99.90;;;;;;5031564;28;20033;-69
2021/08/05 10:07:56;;;;;;;6.70;4.93;;;24.10;99.90;;;;;;5032868;28;20152;-70
2021/08/05 10:10:27;;;;;;;6.60;4.35;;;24.10;99.90;;;;;;5020219;28;20025;-70
2021/08/05 10:12:59;;;;;;;5.35;4.15;;;24.20;99.90;;;;;;5036428;28;20037;-71
2021/08/05 10:15:26;;;;;;;4.28;3.88;;;24.20;99.90;;;;;;5031214;28;20022;-70
2021/08/05 10:17:59;;;;;;;5.05;4.00;;;24.20;99.90;;;;;;5032830;28;20030;-70
2021/08/05 10:20:25;;;;;;;4.57;4.10;;;24.10;99.90;;;;;;5033116;28;20030;-68
2021/08/05 10:22:53;;;;;;;6.85;3.63;;;24.10;99.90;;;;;;5030466;28;20384;-69
2021/08/05 10:25:22;;;;;;;4.22;3.50;;;24.10;99.90;;;;;;5032521;28;20032;-71
2021/08/05 10:27:48;;;;;;;3.83;3.17;;;24.00;99.90;;;;;;5032067;28;20097;-69
2021/08/05 10:30:16;;;;;;;3.38;3.08;;;23.90;99.90;;;;;;5032484;28;20056;-70
2021/08/05 10:32:42;;;;;;;4.25;3.20;;;23.80;99.90;;;;;;5019815;28;20470;-70
2021/08/05 10:35:09;;;;;;;5.60;3.20;;;23.80;99.90;;;;;;5030616;28;20033;-69
2021/08/05 10:37:36;;;;;;;4.15;3.10;;;23.80;99.90;;;;;;5031909;28;20367;-69
2021/08/05 10:40:03;;;;;;;4.10;3.00;;;24.00;99.90;;;;;;5025142;28;20033;-69
2021/08/05 10:42:29;;;;;;;3.10;2.67;;;24.20;99.90;;;;;;5031535;28;20022;-69
2021/08/05 10:44:55;;;;;;;4.03;3.30;;;24.20;99.90;;;;;;5032091;28;20021;-77
2021/08/05 10:47:24;;;;;;;5.50;2.97;;;24.20;99.90;;;;;;5023542;28;20032;-76
2021/08/05 10:49:53;;;;;;;4.47;3.00;;;24.00;99.90;;;;;;5026164;28;20040;-76
2021/08/05 10:52:41;;;;;;;3.63;3.00;;;23.80;99.90;;;;;;5024466;28;20030;-75
2021/08/05 10:55:15;;;;;;;3.90;3.00;;;23.80;99.90;;;;;;5017607;28;20064;-77
2021/08/05 10:57:45;;;;;;;4.13;3.15;;;23.70;99.90;;;;;;5029906;28;20021;-77
2021/08/05 11:00:16;;;;;;;3.45;2.70;;;23.70;99.90;;;;;;5030860;28;20025;-72
2021/08/05 11:02:55;;;;;;;3.35;2.83;;;23.80;99.90;;;;;;5025266;28;20046;-74
2021/08/05 11:05:24;;;;;;;2.70;2.50;;;23.70;99.90;;;;;;5011764;28;20050;-78
2021/08/05 11:08:13;;;;;;;3.53;2.70;;;23.80;99.90;;;;;;5030903;28;20485;-80
2021/08/05 11:10:38;;;;;;;3.60;2.78;;;23.80;99.90;;;;;;5029381;28;20033;-80
2021/08/05 11:13:07;;;;;;;3.13;2.80;;;23.80;99.90;;;;;;5030409;28;20033;-77
2021/08/05 11:15:35;;;;;;;3.08;2.70;;;23.80;99.90;;;;;;5029055;28;20025;-78
2021/08/05 11:20:33;;;;;;;5.05;2.70;;;23.90;99.90;;;;;;5030550;28;20080;-78
2021/08/05 11:22:59;;;;;;;4.07;2.42;;;24.10;99.90;;;;;;5030620;28;20108;-77
2021/08/05 11:25:25;;;;;;;3.00;2.65;;;24.20;99.90;;;;;;5030805;28;20562;-78
2021/08/05 11:28:24;;;;;;;4.15;2.78;;;24.10;99.90;;;;;;5030737;28;20029;-79
2021/08/05 11:30:52;;;;;;;3.40;2.60;;;24.00;99.90;;;;;;5028466;28;20072;-76
2021/08/05 11:33:36;;;;;;;3.53;2.80;;;23.80;99.90;;;;;;5029049;28;20026;-80
2021/08/05 11:36:23;;;;;;;;;;;23.90;99.90;;;;;;5024961;28;20029;-80
2021/08/05 11:38:58;;;;;;;4.18;2.63;;;24.10;99.90;;;;;;5030472;28;20364;-79
2021/08/05 11:41:48;;;;;;;6.75;2.35;;;24.10;99.90;;;;;;5030018;28;20034;-79
2021/08/05 11:44:26;;;;;;;3.22;2.60;;;24.20;99.90;;;;;;5010932;28;20030;-76
2021/08/05 11:47:11;;;;;;;3.40;2.38;;;24.30;99.90;;;;;;5030492;28;20022;-75
2021/08/05 11:49:37;;;;;;;2.65;2.45;;;24.60;99.90;;;;;;5029848;28;20075;-76
2021/08/05 11:52:12;;;;;;;2.75;2.50;;;24.50;99.90;;;;;;5029367;28;20086;-76
2021/08/05 11:54:40;;;;;;;4.45;2.78;;;24.60;99.90;;;;;;5028264;28;20520;-74
2021/08/05 11:57:08;;;;;;;3.80;2.40;;;24.60;99.90;;;;;;5030341;28;20060;-77
2021/08/05 11:59:36;;;;;;;5.40;3.03;;;24.50;99.90;;;;;;5030202;28;20029;-76
2021/08/05 12:02:03;;;;;;;3.65;2.95;;;24.60;99.90;;;;;;5017604;28;20041;-74
2021/08/05 12:04:29;;;;;;;3.83;2.90;;;24.70;99.90;;;;;;5030133;28;20026;-75
2021/08/05 12:07:18;;;;;;;3.00;2.65;;;24.50;99.90;;;;;;5015219;28;20237;-77
2021/08/05 12:09:48;;;;;;;3.10;2.55;;;24.50;99.90;;;;;;5028682;28;20156;-76
2021/08/05 12:12:14;;;;;;;4.22;2.95;;;24.50;99.90;;;;;;5034490;28;20373;-76
2021/08/05 12:14:46;;;;;;;3.60;2.75;;;24.60;99.90;;;;;;5032648;28;20037;-78
2021/08/05 12:17:12;;;;;;;2.80;2.45;;;24.60;99.90;;;;;;5033196;28;20110;-77
2021/08/05 12:19:47;;;;;;;3.85;2.80;;;24.60;99.90;;;;;;5016566;28;20061;-78
2021/08/05 12:22:13;;;;;;;3.28;2.90;;;24.60;99.90;;;;;;5029872;28;20018;-76
2021/08/05 12:24:49;;;;;;;4.22;2.92;;;24.60;99.90;;;;;;5032364;28;20025;-74
2021/08/05 12:27:18;;;;;;;3.25;2.50;;;24.70;99.90;;;;;;5034185;28;20021;-74
2021/08/05 12:30:08;;;;;;;3.63;3.05;;;24.60;99.90;;;;;;5033376;28;20465;-78
2021/08/05 12:32:59;;;;;;;2.97;2.70;;;24.40;99.90;;;;;;5033314;28;20116;-74
2021/08/05 12:35:25;;;;;;;2.92;2.60;;;24.40;99.90;;;;;;5031328;28;20086;-74
2021/08/05 12:38:11;;;;;;;2.90;2.63;;;24.50;99.90;;;;;;5030787;28;20021;-76
2021/08/05 12:40:41;;;;;;;2.70;2.50;;;24.50;99.90;;;;;;5038523;28;20025;-75
2021/08/05 12:43:09;;;;;;;3.17;2.35;;;24.60;99.90;;;;;;5054167;28;20029;-73
2021/08/05 12:45:37;;;;;;;2.95;2.08;;;24.70;99.90;;;;;;5053376;28;20500;-72
2021/08/05 12:48:03;;;;;;;3.42;2.60;;;24.70;99.90;;;;;;5053977;28;20025;-75
2021/08/05 12:50:31;;;;;;;3.15;2.72;;;24.60;99.90;;;;;;5053284;28;20025;-75
2021/08/05 12:52:57;;;;;;;2.42;2.10;;;24.50;99.90;;;;;;5055365;28;20032;-74